Terminal Aerodrome Forecast
Issued by NWS

Home | Current Version | Previous Version | Text Only | Print | Product List | Glossary On
Versions: 1 2 3 4 5 6 7 8 9 10 11 12 13 14
044
FTUS44 KLIX 112338
TAFMCB
TAF
KMCB 112338Z 1200/1224 23006KT P6SM SKC
     FM120800 VRB03KT 2SM BR FEW060
     FM121500 26006KT P6SM BKN015
     FM121700 28010KT P6SM BKN035=

USA.gov is the U.S. government's official web portal to all federal, state and local government web resources and services.